createdAt,value
2022-10-10T00:02:12.725Z,12.98
2022-10-10T00:07:14.946Z,9.60
2022-10-10T00:12:17.121Z,9.35
2022-10-10T00:17:19.455Z,13.77
2022-10-10T00:22:21.846Z,14.30
2022-10-10T00:27:24.133Z,13.80
2022-10-10T00:32:26.401Z,11.30
2022-10-10T00:37:28.814Z,13.63
2022-10-10T00:42:31.125Z,24.92
2022-10-10T00:47:34.120Z,15.07
2022-10-10T00:52:36.331Z,10.05
2022-10-10T00:57:38.611Z,20.08
2022-10-10T01:02:41.064Z,15.43
2022-10-10T01:07:45.035Z,23.15
2022-10-10T01:13:08.058Z,13.57
2022-10-10T01:18:24.770Z,17.55
2022-10-10T01:23:57.713Z,17.15
2022-10-10T01:29:14.884Z,15.93
2022-10-10T01:34:39.877Z,19.73
2022-10-10T01:40:25.555Z,15.73
2022-10-10T01:45:28.534Z,12.98
2022-10-10T01:50:36.345Z,24.52
2022-10-10T01:55:59.685Z,12.40
2022-10-10T02:01:15.231Z,18.80
2022-10-10T02:06:29.886Z,17.50
2022-10-10T02:11:38.868Z,18.10
2022-10-10T02:16:46.591Z,17.02
2022-10-10T02:21:51.388Z,17.27
2022-10-10T02:27:02.197Z,11.57
2022-10-10T02:32:13.524Z,14.07
2022-10-10T02:37:17.322Z,17.65
2022-10-10T02:42:22.514Z,11.30
2022-10-10T02:47:24.850Z,13.02
2022-10-10T02:52:27.167Z,12.57
2022-10-10T02:57:29.351Z,16.85
2022-10-10T03:02:31.606Z,15.93
2022-10-10T03:07:33.803Z,21.85
2022-10-10T03:12:36.538Z,13.88
2022-10-10T03:17:38.751Z,20.85
2022-10-10T03:22:40.937Z,30.83
2022-10-10T03:27:43.131Z,17.45
2022-10-10T03:32:45.431Z,18.02
2022-10-10T03:37:47.654Z,20.08
2022-10-10T03:42:50.037Z,25.05
2022-10-10T03:47:52.383Z,12.35
2022-10-10T03:52:54.678Z,16.20
2022-10-10T03:57:57.111Z,22.88
2022-10-10T04:02:59.770Z,26.08
2022-10-10T04:08:02.248Z,23.38
2022-10-10T04:13:04.645Z,27.00
2022-10-10T04:18:07.042Z,40.13
2022-10-10T04:23:09.332Z,26.80
2022-10-10T04:28:13.591Z,37.85
2022-10-10T04:33:15.923Z,30.38
2022-10-10T04:38:20.249Z,21.52
2022-10-10T04:43:22.483Z,26.23
2022-10-10T04:48:25.224Z,28.30
2022-10-10T04:53:28.199Z,22.05
2022-10-10T04:58:30.852Z,20.63
2022-10-10T05:03:33.402Z,24.98
2022-10-10T05:08:35.612Z,28.65
2022-10-10T05:13:37.961Z,23.58
2022-10-10T05:18:40.171Z,16.95
2022-10-10T05:23:42.376Z,21.58
2022-10-10T05:28:44.751Z,40.63
2022-10-10T05:33:47.234Z,31.10
2022-10-10T05:38:49.671Z,39.33
2022-10-10T05:43:52.191Z,34.42
2022-10-10T05:48:54.728Z,21.73
2022-10-10T05:53:57.799Z,23.55
2022-10-10T05:59:00.019Z,24.42
2022-10-10T06:04:02.718Z,27.45
2022-10-10T06:09:05.106Z,19.33
2022-10-10T06:14:07.669Z,22.30
2022-10-10T06:19:14.645Z,18.85
2022-10-10T06:24:17.295Z,17.20
2022-10-10T06:29:19.526Z,23.77
2022-10-10T06:34:21.845Z,20.08
2022-10-10T06:39:24.298Z,21.25
2022-10-10T06:44:26.805Z,22.40
2022-10-10T06:49:29.824Z,13.88
2022-10-10T06:54:32.176Z,13.95
2022-10-10T06:59:34.819Z,16.80
2022-10-10T07:04:37.604Z,20.48
2022-10-10T07:09:39.852Z,9.65
2022-10-10T07:14:42.038Z,16.55
2022-10-10T07:19:44.209Z,7.85
2022-10-10T07:24:46.546Z,20.88
2022-10-10T07:29:48.873Z,14.07
2022-10-10T07:34:51.355Z,10.95
2022-10-10T07:39:54.386Z,11.98
2022-10-10T07:44:56.659Z,15.23
2022-10-10T07:49:59.081Z,8.25
2022-10-10T07:55:02.195Z,7.22
2022-10-10T08:00:07.022Z,9.15
2022-10-10T08:05:15.107Z,27.63
2022-10-10T08:10:17.390Z,8.20
2022-10-10T08:15:20.036Z,8.30
2022-10-10T08:20:22.331Z,9.85
2022-10-10T08:25:24.525Z,7.35
2022-10-10T08:30:26.719Z,9.32
2022-10-10T08:35:29.090Z,10.10
2022-10-10T08:40:31.951Z,7.97
2022-10-10T08:45:36.099Z,5.38
2022-10-10T08:50:47.013Z,4.72
2022-10-10T08:55:49.614Z,11.07
2022-10-10T09:01:13.475Z,4.53
2022-10-10T09:06:40.215Z,4.32
2022-10-10T09:11:42.895Z,9.40
2022-10-10T09:16:54.544Z,4.72
2022-10-10T09:22:02.295Z,5.78
2022-10-10T09:27:07.283Z,6.32
2022-10-10T09:32:21.516Z,5.03
2022-10-10T09:37:46.432Z,6.82
2022-10-10T09:42:50.684Z,5.07
2022-10-10T09:47:55.928Z,5.57
2022-10-10T09:52:59.324Z,6.88
2022-10-10T09:58:20.182Z,6.93
2022-10-10T10:03:23.502Z,12.98
2022-10-10T10:08:32.701Z,10.93
2022-10-10T10:13:38.015Z,3.47
2022-10-10T10:18:48.326Z,5.65
2022-10-10T10:24:01.139Z,12.23
2022-10-10T10:29:03.983Z,7.93
2022-10-10T10:34:15.496Z,6.30
2022-10-10T10:39:34.192Z,3.97
2022-10-10T10:44:54.331Z,4.32
2022-10-10T10:50:05.747Z,8.98
2022-10-10T10:55:42.448Z,6.22
2022-10-10T11:01:24.296Z,7.68
2022-10-10T11:06:31.515Z,4.13
2022-10-10T11:11:49.305Z,6.32
2022-10-10T11:17:14.213Z,10.07
2022-10-10T11:22:20.543Z,4.97
2022-10-10T11:27:33.970Z,5.80
2022-10-10T11:33:07.855Z,8.63
2022-10-10T11:38:41.255Z,5.18
2022-10-10T11:44:04.715Z,8.50
2022-10-10T11:49:13.121Z,8.02
2022-10-10T11:54:47.536Z,10.30
2022-10-10T11:59:58.337Z,5.97
2022-10-10T12:05:01.348Z,15.15
2022-10-10T12:10:14.294Z,8.90
2022-10-10T12:15:49.953Z,5.70
2022-10-10T12:21:05.545Z,10.77
2022-10-10T12:26:14.685Z,7.05
2022-10-10T12:31:27.500Z,6.72
2022-10-10T12:36:29.676Z,4.47
2022-10-10T12:41:53.159Z,3.90
2022-10-10T12:47:17.414Z,6.00
2022-10-10T12:52:36.413Z,6.75
2022-10-10T12:57:43.522Z,8.68
2022-10-10T13:02:58.088Z,6.10
2022-10-10T13:08:03.307Z,9.82
2022-10-10T13:13:18.497Z,9.75
2022-10-10T13:18:48.772Z,4.63
2022-10-10T13:29:33.453Z,5.45
2022-10-10T13:34:43.033Z,7.65
2022-10-10T13:39:47.915Z,5.38
2022-10-10T13:44:53.406Z,3.50
2022-10-10T13:49:57.351Z,5.30
2022-10-10T13:55:26.434Z,10.48
2022-10-10T14:00:33.043Z,10.02
2022-10-10T14:05:35.648Z,7.68
2022-10-10T14:10:38.532Z,4.40
2022-10-10T14:15:47.114Z,5.95
2022-10-10T14:20:50.534Z,5.57
2022-10-10T14:25:53.686Z,4.93
2022-10-10T14:30:56.144Z,10.93
2022-10-10T14:36:00.758Z,8.68
2022-10-10T14:41:03.338Z,8.95
2022-10-10T14:46:07.298Z,6.28
2022-10-10T14:51:34.361Z,5.70
2022-10-10T14:57:08.996Z,5.18
2022-10-10T15:01:57.474Z,6.25
2022-10-10T15:07:12.938Z,11.95
2022-10-10T15:12:15.947Z,9.13
2022-10-10T15:17:18.472Z,8.98
2022-10-10T15:22:20.940Z,6.40
2022-10-10T15:27:23.378Z,7.22
2022-10-10T15:32:26.121Z,4.65
2022-10-10T15:37:28.468Z,11.63
2022-10-10T15:42:31.569Z,7.13
2022-10-10T15:47:33.900Z,9.82
2022-10-10T15:52:37.073Z,12.65
2022-10-10T15:57:39.698Z,7.00
2022-10-10T16:02:42.099Z,9.82
2022-10-10T16:07:48.259Z,7.70
2022-10-10T16:12:50.976Z,12.65
2022-10-10T16:17:53.455Z,6.28
2022-10-10T16:22:56.116Z,8.18
2022-10-10T16:27:58.307Z,6.43
2022-10-10T16:33:00.898Z,5.53
2022-10-10T16:38:03.206Z,5.43
2022-10-10T16:43:05.947Z,6.35
2022-10-10T16:48:08.314Z,9.77
2022-10-10T16:53:11.386Z,8.73
2022-10-10T16:58:13.768Z,8.63
2022-10-10T17:03:34.567Z,7.80
2022-10-10T17:08:37.339Z,9.75
2022-10-10T17:13:39.745Z,7.35
2022-10-10T17:18:42.147Z,9.88
2022-10-10T17:23:44.709Z,13.90
2022-10-10T17:28:47.118Z,11.40
2022-10-10T17:33:53.538Z,11.77
2022-10-10T17:38:57.299Z,17.60
2022-10-10T17:44:01.057Z,7.07
2022-10-10T17:49:08.252Z,14.15
2022-10-10T17:54:11.484Z,18.77
2022-10-10T17:59:14.049Z,15.88
2022-10-10T18:04:16.859Z,11.50
2022-10-10T18:09:19.234Z,11.23
2022-10-10T18:14:22.155Z,12.65
2022-10-10T18:19:24.595Z,35.70
2022-10-10T18:24:26.858Z,6.03
2022-10-10T18:29:29.090Z,12.50
2022-10-10T18:34:31.331Z,7.22
2022-10-10T18:39:36.401Z,9.65
2022-10-10T18:44:38.667Z,9.20
2022-10-10T18:49:41.267Z,10.48
2022-10-10T18:54:43.699Z,10.32
2022-10-10T18:59:46.185Z,12.80
2022-10-10T19:04:48.860Z,19.20
2022-10-10T19:09:51.414Z,15.55
2022-10-10T19:14:53.931Z,18.90
2022-10-10T19:19:56.246Z,12.00
2022-10-10T19:24:58.908Z,11.38
2022-10-10T19:30:01.062Z,11.68
2022-10-10T19:35:03.684Z,10.57
2022-10-10T19:40:06.561Z,19.17
2022-10-10T19:45:09.342Z,9.48
2022-10-10T19:50:11.980Z,13.30
2022-10-10T19:55:14.373Z,12.43
2022-10-10T20:00:16.924Z,11.20
2022-10-10T20:05:19.192Z,8.15
2022-10-10T20:10:22.021Z,13.32
2022-10-10T20:15:24.353Z,13.05
2022-10-10T20:20:26.625Z,19.90
2022-10-10T20:25:28.815Z,20.70
2022-10-10T20:30:31.357Z,14.05
2022-10-10T20:35:34.719Z,19.63
2022-10-10T20:40:41.408Z,17.08
2022-10-10T20:45:43.848Z,13.90
2022-10-10T20:50:46.049Z,10.60
2022-10-10T20:55:48.283Z,10.02
2022-10-10T21:00:51.472Z,10.55
2022-10-10T21:06:02.714Z,9.75
2022-10-10T21:11:07.748Z,15.45
2022-10-10T21:16:13.786Z,14.90
2022-10-10T21:21:16.383Z,13.55
2022-10-10T21:26:21.260Z,15.98
2022-10-10T21:31:36.647Z,19.88
2022-10-10T21:36:38.974Z,21.58
2022-10-10T21:41:41.979Z,14.93
2022-10-10T21:46:44.428Z,20.85
2022-10-10T21:51:46.993Z,17.75
2022-10-10T21:56:49.604Z,16.90
2022-10-10T22:01:51.975Z,16.33
2022-10-10T22:06:54.487Z,12.98
2022-10-10T22:11:56.811Z,14.95
2022-10-10T22:16:59.311Z,20.83
2022-10-10T22:22:01.873Z,22.75
2022-10-10T22:27:04.276Z,14.85
2022-10-10T22:32:06.668Z,26.70
2022-10-10T22:37:09.174Z,15.30
2022-10-10T22:42:11.615Z,16.80
2022-10-10T22:47:13.931Z,18.02
2022-10-10T22:52:16.458Z,11.63
2022-10-10T22:57:18.637Z,14.43
2022-10-10T23:02:20.967Z,17.63
2022-10-10T23:07:23.226Z,15.32
2022-10-10T23:12:25.639Z,15.70
2022-10-10T23:17:27.865Z,13.50
2022-10-10T23:22:30.250Z,16.13
2022-10-10T23:27:32.778Z,12.65
2022-10-10T23:32:35.409Z,18.75
2022-10-10T23:37:37.875Z,12.30
2022-10-10T23:42:40.081Z,17.13
2022-10-10T23:47:42.278Z,17.48
2022-10-10T23:52:44.708Z,14.77
2022-10-10T23:57:47.236Z,18.98
